Time;durP1;ratioP1;P1;durP2;ratioP2;P2;SDS_P1;SDS_P2;PMS_P1;PMS_P2;Temp;Humidity;BMP_temperature;BMP_pressure;BME280_temperature;BME280_humidity;BME280_pressure;Samples;Min_cycle;Max_cycle;Signal;HPM_P1;HPM_P2
2023/01/08 00:02:23;;;;;;;5.93;2.22;;;22.10;48.20;;;;;;5094079;28;20570;-49
2023/01/08 00:04:53;;;;;;;4.72;1.85;;;22.10;48.20;;;;;;5093830;28;20315;-53
2023/01/08 00:07:24;;;;;;;5.55;2.10;;;22.10;48.20;;;;;;5093551;28;20194;-57
2023/01/08 00:09:55;;;;;;;6.00;2.25;;;22.20;48.20;;;;;;5093985;28;20202;-55
2023/01/08 00:12:25;;;;;;;3.80;1.95;;;22.20;48.30;;;;;;5094014;28;20692;-56
2023/01/08 00:14:58;;;;;;;8.00;2.38;;;22.30;48.40;;;;;;5093803;28;20580;-56
2023/01/08 00:17:29;;;;;;;3.65;1.75;;;22.30;48.30;;;;;;5093335;28;20202;-54
2023/01/08 00:19:59;;;;;;;4.78;2.17;;;22.40;48.50;;;;;;5093383;28;20562;-55
2023/01/08 00:22:30;;;;;;;6.35;2.40;;;22.40;48.40;;;;;;5093670;28;20229;-58
2023/01/08 00:25:01;;;;;;;5.70;1.88;;;22.40;48.50;;;;;;5093275;28;20232;-54
2023/01/08 00:27:31;;;;;;;4.63;1.92;;;22.40;48.40;;;;;;5092840;28;20194;-56
2023/01/08 00:30:04;;;;;;;5.40;2.10;;;22.50;48.50;;;;;;5093099;28;20202;-54
2023/01/08 00:32:35;;;;;;;4.07;1.75;;;22.50;48.50;;;;;;5093254;28;20201;-57
2023/01/08 00:35:05;;;;;;;4.63;2.08;;;22.60;48.50;;;;;;5093543;28;20214;-57
2023/01/08 00:37:36;;;;;;;3.83;1.65;;;22.60;48.40;;;;;;5093678;28;20194;-58
2023/01/08 00:40:07;;;;;;;4.75;2.10;;;22.60;48.40;;;;;;5093611;28;20198;-57
2023/01/08 00:42:38;;;;;;;4.38;1.83;;;22.60;48.50;;;;;;5093591;28;20595;-55
2023/01/08 00:47:58;;;;;;;4.25;1.88;;;22.70;48.50;;;;;;5556948;22;20689;-44
2023/01/08 00:50:29;;;;;;;5.43;2.10;;;22.80;48.50;;;;;;5098622;22;20601;-42
2023/01/08 00:53:00;;;;;;;5.45;1.90;;;22.80;48.50;;;;;;5092642;28;20795;-44
2023/01/08 00:55:31;;;;;;;4.55;1.75;;;22.80;48.40;;;;;;5106371;28;20217;-43
2023/01/08 00:58:01;;;;;;;4.68;1.90;;;22.90;48.50;;;;;;5112780;28;20193;-49
2023/01/08 01:00:32;;;;;;;3.60;1.80;;;22.90;48.50;;;;;;5103318;28;20183;-43
2023/01/08 01:03:05;;;;;;;6.75;1.98;;;22.90;48.50;;;;;;5092189;28;20194;-43
2023/01/08 01:05:35;;;;;;;4.15;1.75;;;23.00;48.50;;;;;;5092801;28;20233;-45
2023/01/08 01:08:06;;;;;;;3.20;1.67;;;23.00;48.50;;;;;;5100871;28;20194;-43
2023/01/08 01:10:37;;;;;;;3.45;1.75;;;23.00;48.60;;;;;;5092999;28;20201;-44
2023/01/08 01:13:07;;;;;;;5.95;2.00;;;23.00;48.40;;;;;;5092004;28;20182;-48
2023/01/08 01:15:38;;;;;;;4.28;1.90;;;23.10;48.50;;;;;;5092503;28;20225;-45
2023/01/08 01:18:11;;;;;;;62.65;8.10;;;23.10;48.50;;;;;;5092436;28;20205;-41
2023/01/08 01:20:42;;;;;;;16.63;2.78;;;23.20;48.50;;;;;;5092653;28;20284;-42
2023/01/08 01:23:12;;;;;;;54.65;6.00;;;23.20;48.50;;;;;;5092503;28;20671;-46
2023/01/08 01:25:43;;;;;;;57.28;8.43;;;23.20;48.50;;;;;;5092182;28;20593;-41
2023/01/08 01:28:14;;;;;;;84.15;9.02;;;23.20;48.50;;;;;;5092264;28;20202;-45
2023/01/08 01:30:44;;;;;;;84.07;10.98;;;23.30;48.50;;;;;;5092499;28;20198;-42
2023/01/08 01:33:17;;;;;;;75.60;10.88;;;23.30;48.50;;;;;;5092638;28;20209;-49
2023/01/08 01:35:48;;;;;;;66.82;9.30;;;23.30;48.40;;;;;;5092641;28;20218;-45
2023/01/08 01:38:18;;;;;;;46.67;6.80;;;23.40;48.60;;;;;;5092710;28;20198;-48
2023/01/08 01:40:49;;;;;;;64.75;8.00;;;23.40;48.60;;;;;;5092591;28;20190;-45
2023/01/08 01:43:39;;;;;;;37.08;5.95;;;23.40;48.50;;;;;;5092335;28;20204;-40
2023/01/08 02:45:48;;;;;;;7.68;2.25;;;22.70;44.20;;;;;;6048722;22;20217;-61
2023/01/08 02:48:29;;;;;;;7.57;2.00;;;22.70;44.60;;;;;;5090539;28;20189;-61
2023/01/08 02:51:07;;;;;;;6.10;2.20;;;22.70;44.80;;;;;;5090871;28;20190;-57
2023/01/08 02:53:42;;;;;;;7.00;2.10;;;22.70;45.00;;;;;;5089482;28;20206;-51
2023/01/08 02:56:16;;;;;;;4.82;1.67;;;22.70;45.10;;;;;;5066773;28;20222;-58
2023/01/08 02:58:48;;;;;;;5.60;1.67;;;22.70;45.30;;;;;;5061858;28;20202;-57
2023/01/08 03:01:21;;;;;;;7.07;2.15;;;22.80;45.40;;;;;;5066122;28;20200;-52
2023/01/08 03:03:55;;;;;;;6.68;1.58;;;22.80;45.40;;;;;;5055781;28;20194;-57
2023/01/08 03:06:27;;;;;;;7.65;1.90;;;22.90;45.50;;;;;;5070054;28;20209;-55
2023/01/08 03:08:59;;;;;;;6.68;1.90;;;22.90;45.50;;;;;;5070544;28;20199;-54
2023/01/08 03:11:34;;;;;;;6.55;1.67;;;23.00;45.50;;;;;;5070385;28;20653;-50
2023/01/08 03:14:09;;;;;;;6.38;2.13;;;23.00;45.50;;;;;;5070532;28;20551;-54
2023/01/08 03:16:43;;;;;;;7.05;1.90;;;23.10;45.50;;;;;;5068512;28;20688;-50
2023/01/08 03:19:17;;;;;;;4.88;2.00;;;23.20;45.50;;;;;;5070250;28;20190;-55
2023/01/08 03:21:49;;;;;;;4.47;1.75;;;23.20;45.50;;;;;;5069735;28;20201;-56
2023/01/08 03:24:23;;;;;;;4.35;2.00;;;23.30;45.40;;;;;;5070208;28;20215;-54
2023/01/08 03:26:57;;;;;;;5.18;1.70;;;23.30;45.40;;;;;;5072862;28;20201;-52
2023/01/08 03:29:29;;;;;;;5.55;1.50;;;23.40;45.40;;;;;;5074158;28;20198;-56
2023/01/08 03:32:06;;;;;;;4.20;1.92;;;23.40;45.40;;;;;;5074287;28;20203;-60
2023/01/08 03:34:39;;;;;;;4.00;1.60;;;23.50;45.50;;;;;;5083644;28;20213;-55
2023/01/08 03:37:11;;;;;;;5.13;1.75;;;23.50;45.50;;;;;;5094782;28;20198;-58
2023/01/08 03:39:46;;;;;;;6.18;1.63;;;23.60;45.50;;;;;;5079856;28;20195;-53
2023/01/08 03:42:18;;;;;;;11.07;2.15;;;23.60;45.40;;;;;;5073274;28;20194;-58
2023/01/08 03:44:49;;;;;;;7.25;2.30;;;23.70;45.40;;;;;;5073172;28;20962;-53
2023/01/08 03:47:24;;;;;;;11.45;2.47;;;23.70;45.50;;;;;;5073812;28;20748;-53
2023/01/08 03:49:56;;;;;;;8.80;2.03;;;23.70;46.10;;;;;;5073764;28;20194;-49
2023/01/08 03:52:28;;;;;;;9.23;1.98;;;23.80;45.50;;;;;;5073846;28;20210;-51
2023/01/08 03:54:59;;;;;;;5.18;1.92;;;23.80;45.50;;;;;;5073576;28;20223;-54
2023/01/08 03:57:30;;;;;;;5.70;1.80;;;23.90;45.50;;;;;;5073130;28;20190;-50
2023/01/08 04:00:00;;;;;;;10.98;1.95;;;24.00;45.50;;;;;;5062845;28;20615;-55
2023/01/08 04:02:33;;;;;;;6.68;1.92;;;23.90;45.30;;;;;;5053612;28;20200;-54
2023/01/08 04:05:04;;;;;;;7.45;1.70;;;24.00;45.30;;;;;;5076456;28;20290;-50
2023/01/08 04:07:34;;;;;;;7.30;2.15;;;24.10;45.30;;;;;;5092680;28;20205;-53
2023/01/08 04:10:05;;;;;;;8.68;1.95;;;24.10;45.30;;;;;;5076543;28;20195;-55
2023/01/08 04:12:36;;;;;;;3.97;1.33;;;24.10;45.30;;;;;;5072412;28;20213;-56
2023/01/08 04:15:07;;;;;;;5.35;1.60;;;24.20;45.20;;;;;;5073071;28;20241;-45
2023/01/08 04:17:39;;;;;;;4.25;1.83;;;24.20;45.20;;;;;;5073632;28;20281;-50
2023/01/08 04:20:11;;;;;;;3.55;1.40;;;24.20;45.20;;;;;;5073605;28;20577;-51
2023/01/08 04:22:41;;;;;;;5.70;1.58;;;24.30;45.10;;;;;;5073091;28;20237;-48
2023/01/08 04:25:12;;;;;;;6.63;1.63;;;24.30;45.00;;;;;;5073330;28;20231;-58
2023/01/08 04:27:43;;;;;;;3.90;1.60;;;24.30;44.90;;;;;;5073040;28;20218;-53
2023/01/08 04:30:14;;;;;;;5.07;2.08;;;24.40;45.00;;;;;;5073163;28;20187;-55
2023/01/08 04:32:47;;;;;;;5.97;1.90;;;24.40;45.00;;;;;;5073547;28;20226;-53
2023/01/08 04:35:18;;;;;;;4.95;1.65;;;24.40;44.90;;;;;;5072745;28;20211;-52
2023/01/08 04:37:48;;;;;;;3.75;1.60;;;24.50;44.90;;;;;;5071824;28;20206;-51
2023/01/08 04:40:19;;;;;;;5.22;1.75;;;24.50;44.90;;;;;;5072870;28;20195;-55
2023/01/08 04:42:50;;;;;;;3.97;1.70;;;24.50;44.90;;;;;;5072435;28;20202;-60
2023/01/08 04:48:01;;;;;;;7.72;1.80;;;24.60;45.50;;;;;;5090969;28;20206;-55
2023/01/08 04:50:32;;;;;;;6.80;1.88;;;24.60;44.80;;;;;;5092149;28;20194;-54
2023/01/08 04:53:02;;;;;;;3.42;1.70;;;24.60;44.70;;;;;;5092553;28;20229;-54
2023/01/08 04:55:34;;;;;;;3.00;1.52;;;24.70;44.80;;;;;;5092707;28;20225;-54
2023/01/08 04:58:05;;;;;;;5.72;1.92;;;24.60;44.70;;;;;;5091711;28;20194;-54
2023/01/08 05:00:36;;;;;;;3.78;1.45;;;24.70;44.70;;;;;;5089876;28;20190;-52
2023/01/08 05:03:08;;;;;;;3.22;1.50;;;24.70;44.80;;;;;;5053230;28;20199;-55
2023/01/08 05:05:39;;;;;;;5.50;1.85;;;24.70;44.80;;;;;;5068341;28;20222;-54
2023/01/08 05:08:10;;;;;;;3.80;1.63;;;24.70;44.70;;;;;;5071729;28;20195;-54
2023/01/08 05:10:41;;;;;;;4.85;1.88;;;24.70;44.70;;;;;;5072304;28;20191;-54
2023/01/08 05:13:11;;;;;;;3.83;1.75;;;24.80;44.70;;;;;;5068708;28;21403;-55
2023/01/08 05:15:42;;;;;;;6.43;1.70;;;24.80;44.60;;;;;;5070475;28;20218;-56
2023/01/08 05:18:15;;;;;;;5.07;1.55;;;24.80;44.70;;;;;;5072317;28;20692;-54
2023/01/08 05:20:47;;;;;;;4.18;1.48;;;24.80;44.60;;;;;;5072102;28;20202;-54
2023/01/08 05:23:18;;;;;;;2.30;1.17;;;24.80;44.50;;;;;;5071468;28;20240;-55
2023/01/08 05:25:49;;;;;;;5.28;1.50;;;24.80;44.50;;;;;;5072088;28;20230;-53
2023/01/08 05:28:19;;;;;;;4.93;1.77;;;24.90;44.60;;;;;;5072031;28;20202;-53
2023/01/08 05:30:52;;;;;;;5.38;2.03;;;24.90;44.50;;;;;;5071640;28;20664;-53
2023/01/08 05:33:25;;;;;;;4.28;1.90;;;24.90;44.30;;;;;;5072262;28;20198;-54
2023/01/08 05:35:55;;;;;;;5.32;1.60;;;24.90;44.30;;;;;;5070835;28;20716;-55
2023/01/08 05:38:26;;;;;;;6.63;2.10;;;24.90;44.40;;;;;;5071724;28;20209;-56
2023/01/08 05:40:57;;;;;;;4.88;1.63;;;24.90;44.50;;;;;;5071487;28;20191;-55
2023/01/08 05:43:27;;;;;;;4.93;1.98;;;24.90;44.50;;;;;;5071783;28;20205;-54
2023/01/08 05:46:00;;;;;;;6.65;1.90;;;24.90;44.50;;;;;;5088263;22;20230;-52
2023/01/08 05:48:36;;;;;;;7.13;2.17;;;24.90;44.50;;;;;;5091889;28;20186;-45
2023/01/08 05:51:07;;;;;;;8.10;2.17;;;24.90;44.30;;;;;;5091082;28;20190;-50
2023/01/08 05:53:37;;;;;;;5.80;1.88;;;24.90;44.30;;;;;;5091786;28;20668;-46
2023/01/08 05:56:11;;;;;;;5.90;1.85;;;24.90;44.20;;;;;;5091563;28;20210;-49
2023/01/08 05:58:42;;;;;;;4.80;1.55;;;24.90;44.30;;;;;;5091498;28;20224;-49
2023/01/08 06:01:14;;;;;;;5.47;1.70;;;24.90;44.20;;;;;;5091195;28;20289;-49
2023/01/08 06:03:47;;;;;;;4.88;1.70;;;24.90;44.20;;;;;;5091401;28;20202;-48
2023/01/08 06:06:18;;;;;;;5.32;1.70;;;24.90;44.30;;;;;;5091383;28;20249;-48
2023/01/08 06:08:48;;;;;;;4.68;1.63;;;24.90;44.30;;;;;;5084706;28;20206;-47
2023/01/08 06:11:19;;;;;;;6.03;1.67;;;24.90;44.30;;;;;;5071182;28;20202;-45
2023/01/08 06:13:50;;;;;;;4.40;2.03;;;24.90;44.30;;;;;;5070792;28;20650;-45
2023/01/08 06:16:20;;;;;;;4.22;1.50;;;24.90;44.30;;;;;;5071125;28;20195;-48
2023/01/08 06:18:54;;;;;;;4.28;1.90;;;24.90;44.30;;;;;;5071216;28;20199;-45
2023/01/08 06:21:25;;;;;;;4.18;1.42;;;24.90;44.30;;;;;;5070709;28;20187;-45
2023/01/08 06:23:55;;;;;;;4.80;1.52;;;25.00;44.30;;;;;;5071095;28;20199;-51
2023/01/08 06:26:26;;;;;;;4.68;1.77;;;25.00;44.10;;;;;;5070564;28;20300;-46
2023/01/08 06:28:57;;;;;;;5.18;1.63;;;25.00;44.10;;;;;;5071231;28;20234;-49
2023/01/08 06:31:27;;;;;;;4.68;1.70;;;25.00;44.10;;;;;;5071180;28;20191;-45
2023/01/08 06:34:00;;;;;;;4.97;1.77;;;25.00;44.10;;;;;;5070721;28;20642;-49
2023/01/08 06:36:31;;;;;;;3.83;1.40;;;25.00;44.00;;;;;;5070737;28;20191;-45
2023/01/08 06:39:01;;;;;;;4.32;1.60;;;25.00;44.00;;;;;;5070624;28;20206;-46
2023/01/08 06:41:32;;;;;;;4.50;1.70;;;25.00;44.10;;;;;;5070640;28;20203;-45
2023/01/08 06:44:03;;;;;;;5.70;1.73;;;24.90;44.10;;;;;;5070548;28;20199;-45
2023/01/08 06:46:37;;;;;;;3.63;1.55;;;25.00;44.10;;;;;;5071081;28;20863;-46
2023/01/08 06:49:09;;;;;;;6.45;1.77;;;25.00;44.10;;;;;;5070944;28;20723;-46
2023/01/08 06:51:40;;;;;;;5.00;1.50;;;25.00;44.10;;;;;;5070920;28;20206;-45
2023/01/08 06:54:11;;;;;;;3.50;1.52;;;25.00;44.10;;;;;;5070970;28;20200;-48
2023/01/08 06:56:41;;;;;;;4.85;1.50;;;25.00;44.10;;;;;;5071190;28;20209;-46
2023/01/08 06:59:12;;;;;;;3.58;1.50;;;25.00;44.10;;;;;;5069820;28;20553;-45
2023/01/08 07:01:43;;;;;;;2.92;1.45;;;25.00;44.10;;;;;;5069603;28;20203;-45
2023/01/08 07:04:15;;;;;;;5.70;1.80;;;25.00;44.00;;;;;;5070784;28;20229;-45
2023/01/08 07:06:46;;;;;;;4.75;1.70;;;25.00;44.00;;;;;;5063940;28;20223;-45
2023/01/08 07:09:17;;;;;;;4.10;1.40;;;25.00;43.90;;;;;;5060096;28;20198;-45
2023/01/08 07:11:48;;;;;;;4.68;1.70;;;25.00;43.90;;;;;;5070885;28;20769;-45
2023/01/08 07:14:18;;;;;;;3.78;1.70;;;25.00;43.80;;;;;;5067818;28;20214;-46
2023/01/08 07:16:49;;;;;;;4.00;1.33;;;25.00;43.80;;;;;;5070883;28;20195;-46
2023/01/08 07:19:22;;;;;;;4.18;1.38;;;25.00;43.90;;;;;;5070994;28;20199;-45
2023/01/08 07:21:52;;;;;;;5.78;2.08;;;25.00;43.80;;;;;;5070612;28;20199;-45
2023/01/08 07:24:23;;;;;;;5.68;1.70;;;25.00;43.80;;;;;;5070313;28;20223;-45
2023/01/08 07:26:54;;;;;;;2.67;1.20;;;25.00;43.80;;;;;;5070711;28;20230;-47
2023/01/08 07:29:24;;;;;;;3.47;1.35;;;25.00;43.90;;;;;;5070380;28;20194;-46
2023/01/08 07:31:55;;;;;;;3.47;1.50;;;24.90;43.90;;;;;;5070617;28;20654;-46
2023/01/08 07:34:28;;;;;;;5.50;1.45;;;25.00;43.90;;;;;;5070351;28;20211;-48
2023/01/08 07:36:58;;;;;;;3.83;1.77;;;24.90;43.90;;;;;;5070414;28;20206;-46
2023/01/08 07:39:29;;;;;;;4.82;1.65;;;24.90;43.80;;;;;;5069869;28;20662;-48
2023/01/08 07:42:00;;;;;;;2.53;1.25;;;24.90;43.80;;;;;;5070717;28;20206;-52
2023/01/08 07:44:30;;;;;;;3.33;1.23;;;24.90;43.80;;;;;;5070651;28;20226;-60
2023/01/08 07:47:01;;;;;;;3.28;1.25;;;24.90;43.90;;;;;;5071143;28;20697;-58
2023/01/08 07:49:34;;;;;;;3.67;1.73;;;24.90;43.90;;;;;;5070756;28;20206;-48
2023/01/08 07:52:04;;;;;;;3.50;1.45;;;24.80;43.80;;;;;;5070701;28;20195;-57
2023/01/08 07:54:35;;;;;;;4.80;1.48;;;24.80;43.90;;;;;;5070596;28;20218;-48
2023/01/08 07:57:06;;;;;;;4.63;1.58;;;24.80;44.00;;;;;;5070359;28;20203;-55
2023/01/08 07:59:36;;;;;;;3.35;1.20;;;24.80;44.00;;;;;;5070087;28;20206;-47
2023/01/08 08:02:07;;;;;;;3.83;1.20;;;24.70;44.00;;;;;;5070355;28;20194;-45
2023/01/08 08:04:39;;;;;;;3.20;1.38;;;24.70;44.00;;;;;;5071382;28;20217;-49
2023/01/08 08:07:10;;;;;;;2.78;1.20;;;24.70;44.10;;;;;;5063817;28;20250;-52
2023/01/08 08:09:41;;;;;;;3.55;1.50;;;24.70;44.10;;;;;;5070391;28;20195;-57
2023/01/08 08:12:13;;;;;;;4.45;1.52;;;24.70;44.10;;;;;;5066168;28;20673;-57
2023/01/08 08:14:43;;;;;;;4.10;1.42;;;24.70;44.10;;;;;;5053368;28;20219;-62
2023/01/08 08:17:14;;;;;;;3.22;1.35;;;24.60;44.00;;;;;;5078672;28;20191;-60
2023/01/08 08:19:47;;;;;;;5.03;1.60;;;24.60;44.00;;;;;;5093391;28;20205;-56
2023/01/08 08:22:17;;;;;;;7.13;1.85;;;24.60;44.00;;;;;;5093107;28;20209;-56
2023/01/08 08:24:48;;;;;;;3.97;1.50;;;24.60;44.00;;;;;;5086854;28;20211;-55
2023/01/08 08:27:18;;;;;;;3.70;1.40;;;24.50;44.60;;;;;;5073117;28;20219;-56
2023/01/08 08:29:49;;;;;;;3.38;1.30;;;24.50;44.00;;;;;;5072809;28;20198;-59
2023/01/08 08:32:20;;;;;;;3.45;1.40;;;24.50;44.10;;;;;;5072787;28;20608;-60
2023/01/08 08:34:52;;;;;;;5.47;1.40;;;24.50;44.10;;;;;;5072043;28;20218;-52
2023/01/08 08:37:23;;;;;;;5.45;1.38;;;24.40;44.10;;;;;;5072526;28;20199;-57
2023/01/08 08:39:54;;;;;;;4.15;1.48;;;24.40;44.10;;;;;;5072370;28;20202;-61
2023/01/08 08:42:24;;;;;;;4.13;1.35;;;24.40;44.10;;;;;;5072958;28;20674;-57
2023/01/08 08:44:55;;;;;;;3.80;1.40;;;24.40;44.20;;;;;;5072383;28;20217;-61
2023/01/08 08:47:26;;;;;;;5.05;1.60;;;24.40;44.20;;;;;;5166944;22;20240;-59
2023/01/08 08:49:58;;;;;;;2.75;1.15;;;24.30;44.10;;;;;;5092694;28;20209;-57
2023/01/08 08:52:29;;;;;;;2.83;1.33;;;24.30;44.10;;;;;;5080350;28;20190;-58
2023/01/08 08:55:00;;;;;;;4.40;1.20;;;24.30;44.20;;;;;;5072256;28;20214;-54
2023/01/08 08:57:30;;;;;;;2.80;1.40;;;24.30;44.20;;;;;;5084053;28;20190;-53
2023/01/08 09:00:01;;;;;;;2.47;1.25;;;24.30;44.20;;;;;;5089443;28;20616;-56
2023/01/08 09:02:32;;;;;;;2.70;1.35;;;24.20;44.20;;;;;;5078753;28;20194;-56
2023/01/08 09:05:04;;;;;;;2.78;1.38;;;24.20;44.20;;;;;;5072867;28;20215;-55
2023/01/08 09:07:35;;;;;;;2.05;1.15;;;24.20;44.30;;;;;;5081000;28;20210;-58
2023/01/08 09:10:06;;;;;;;2.85;1.42;;;24.20;44.30;;;;;;5090636;28;20190;-58
2023/01/08 09:12:37;;;;;;;2.53;1.23;;;24.20;44.30;;;;;;5079935;28;20199;-57
2023/01/08 09:15:08;;;;;;;3.63;1.52;;;24.10;44.30;;;;;;5072388;28;20219;-55
2023/01/08 09:17:39;;;;;;;3.00;1.63;;;24.10;44.30;;;;;;5085000;28;20190;-55
2023/01/08 09:20:12;;;;;;;3.75;1.58;;;24.10;44.40;;;;;;5093757;28;20205;-56
2023/01/08 09:22:43;;;;;;;8.52;2.83;;;24.10;44.40;;;;;;5092972;28;20201;-60
2023/01/08 09:25:14;;;;;;;6.30;2.70;;;24.00;44.40;;;;;;5091944;28;20986;-54
2023/01/08 09:27:47;;;;;;;6.50;2.55;;;24.00;44.40;;;;;;5078545;28;20222;-56
2023/01/08 09:30:18;;;;;;;4.72;2.53;;;24.00;44.50;;;;;;5071534;28;20195;-55
2023/01/08 09:32:49;;;;;;;7.85;3.08;;;24.00;44.50;;;;;;5072221;28;20650;-58
2023/01/08 09:35:21;;;;;;;6.10;2.60;;;24.00;44.50;;;;;;5071537;28;20573;-54
2023/01/08 09:37:54;;;;;;;7.38;2.80;;;23.90;44.50;;;;;;5085269;28;20677;-53
2023/01/08 09:40:27;;;;;;;7.55;2.50;;;23.90;44.50;;;;;;5091845;28;20202;-54
2023/01/08 09:43:02;;;;;;;3.63;2.28;;;23.90;44.50;;;;;;5077675;28;20202;-55
2023/01/08 09:48:18;;;;;;;4.80;2.28;;;23.80;44.60;;;;;;5049623;28;20241;-53
2023/01/08 09:50:51;;;;;;;4.57;2.33;;;23.80;44.60;;;;;;5051681;28;20202;-52
2023/01/08 09:53:22;;;;;;;7.18;3.00;;;23.80;44.70;;;;;;5051009;28;20216;-48
2023/01/08 09:55:58;;;;;;;4.05;2.20;;;23.70;44.60;;;;;;5068347;28;20697;-55
2023/01/08 09:58:37;;;;;;;5.18;2.50;;;23.70;44.60;;;;;;5070751;28;20194;-49
2023/01/08 10:01:08;;;;;;;5.68;2.90;;;23.70;44.70;;;;;;5071602;28;20195;-57
2023/01/08 10:03:44;;;;;;;4.70;2.13;;;23.70;44.60;;;;;;5070647;28;20206;-51
2023/01/08 10:06:18;;;;;;;5.70;2.35;;;23.70;44.70;;;;;;5071591;28;20219;-53
2023/01/08 10:08:49;;;;;;;6.63;2.58;;;23.60;44.60;;;;;;5071409;28;20209;-50
2023/01/08 10:11:20;;;;;;;4.15;2.03;;;23.60;44.60;;;;;;5072035;28;20191;-58
2023/01/08 10:13:54;;;;;;;7.25;2.72;;;23.60;44.70;;;;;;5057420;28;20207;-55
2023/01/08 10:16:30;;;;;;;5.95;2.50;;;23.50;44.70;;;;;;5071435;28;20237;-55
2023/01/08 10:19:01;;;;;;;4.45;2.22;;;23.50;44.70;;;;;;5050207;28;20639;-52
2023/01/08 10:21:41;;;;;;;4.22;2.53;;;23.50;44.70;;;;;;5050684;28;20195;-55
2023/01/08 10:24:12;;;;;;;3.33;1.90;;;23.50;44.80;;;;;;5050854;28;20741;-48
2023/01/08 10:26:42;;;;;;;3.13;2.20;;;23.40;44.70;;;;;;5051523;28;20281;-56
2023/01/08 10:29:16;;;;;;;5.15;2.25;;;23.40;44.80;;;;;;5071295;28;20198;-54
2023/01/08 10:31:52;;;;;;;4.13;2.20;;;23.40;44.80;;;;;;5071343;28;20197;-54
2023/01/08 10:34:29;;;;;;;5.18;1.98;;;23.40;44.80;;;;;;5070930;28;20229;-51
2023/01/08 10:37:02;;;;;;;4.60;2.17;;;23.30;44.80;;;;;;5070713;28;20199;-51
2023/01/08 10:39:33;;;;;;;4.07;2.05;;;23.30;44.80;;;;;;5071225;28;20666;-46
2023/01/08 10:42:08;;;;;;;5.20;2.40;;;23.30;44.80;;;;;;5071051;28;20195;-53
2023/01/08 10:44:39;;;;;;;4.20;1.80;;;23.30;44.80;;;;;;5070745;28;20221;-52
2023/01/08 10:47:17;;;;;;;4.63;2.22;;;23.30;44.80;;;;;;5071440;28;21445;-56
2023/01/08 10:49:48;;;;;;;5.95;2.38;;;23.20;44.90;;;;;;5071383;28;20202;-55
2023/01/08 10:52:30;;;;;;;5.72;2.42;;;23.20;44.80;;;;;;5071378;28;20199;-48
2023/01/08 10:55:13;;;;;;;6.05;2.30;;;23.20;44.90;;;;;;5071258;28;20217;-55
2023/01/08 10:57:54;;;;;;;4.45;2.30;;;23.20;44.90;;;;;;5068903;28;20194;-45
2023/01/08 11:00:30;;;;;;;4.65;1.92;;;23.10;44.90;;;;;;5050521;28;20565;-45
2023/01/08 11:03:04;;;;;;;3.70;2.03;;;23.10;45.50;;;;;;5053522;28;20191;-50
2023/01/08 11:05:35;;;;;;;4.55;2.20;;;23.10;44.90;;;;;;5051008;28;20226;-45
2023/01/08 11:08:09;;;;;;;3.35;1.83;;;23.00;44.90;;;;;;5050930;28;20223;-52
2023/01/08 11:10:40;;;;;;;4.07;2.03;;;23.00;44.90;;;;;;5068512;28;20199;-48
2023/01/08 11:13:20;;;;;;;3.38;2.03;;;23.00;45.00;;;;;;5070992;28;20677;-48
2023/01/08 11:16:04;;;;;;;3.70;1.80;;;23.00;45.00;;;;;;5070804;28;20215;-48
2023/01/08 11:18:45;;;;;;;4.20;2.20;;;23.00;45.00;;;;;;5070521;28;20206;-52
2023/01/08 11:21:22;;;;;;;2.65;1.77;;;22.90;44.90;;;;;;5070345;28;20195;-48
2023/01/08 11:24:15;;;;;;;5.47;2.20;;;22.90;45.00;;;;;;5071066;28;20202;-46
2023/01/08 11:26:50;;;;;;;3.38;1.73;;;22.90;45.00;;;;;;5070784;28;20206;-54
2023/01/08 11:29:25;;;;;;;3.67;2.22;;;22.90;45.00;;;;;;5070399;28;20617;-49
2023/01/08 11:32:05;;;;;;;2.92;2.00;;;22.90;45.10;;;;;;5070687;28;20213;-52
2023/01/08 11:34:44;;;;;;;3.15;1.95;;;22.80;45.00;;;;;;5070601;28;20226;-52
2023/01/08 11:37:21;;;;;;;2.53;1.83;;;22.80;45.00;;;;;;5070702;28;20210;-45
2023/01/08 11:39:54;;;;;;;2.78;1.60;;;22.80;45.10;;;;;;5070512;28;20198;-46
2023/01/08 11:42:41;;;;;;;3.38;1.98;;;22.80;45.10;;;;;;5070611;28;20206;-48
2023/01/08 11:45:23;;;;;;;3.85;1.60;;;22.70;45.10;;;;;;5070236;28;20215;-49
2023/01/08 11:48:23;;;;;;;4.30;1.83;;;22.70;45.10;;;;;;5071952;28;20226;-51
2023/01/08 11:51:09;;;;;;;2.58;1.70;;;22.70;45.10;;;;;;5064576;28;20199;-54
2023/01/08 11:53:45;;;;;;;2.70;1.95;;;22.70;45.10;;;;;;5074439;28;20198;-50
2023/01/08 11:56:31;;;;;;;3.17;1.98;;;22.60;45.10;;;;;;5074252;28;20222;-54
2023/01/08 11:59:12;;;;;;;3.03;1.67;;;22.60;45.20;;;;;;5073847;28;20580;-51
2023/01/08 12:01:59;;;;;;;4.63;2.00;;;22.60;45.20;;;;;;5073956;28;20202;-51
2023/01/08 12:05:08;;;;;;;2.80;1.88;;;22.60;45.20;;;;;;5073878;28;20682;-54
2023/01/08 12:07:48;;;;;;;3.08;1.60;;;22.50;45.20;;;;;;5049501;28;20223;-51
2023/01/08 12:10:29;;;;;;;3.35;1.88;;;22.50;45.20;;;;;;5073702;28;20241;-49
2023/01/08 12:13:16;;;;;;;3.20;1.75;;;22.50;45.20;;;;;;5073591;28;20209;-44
2023/01/08 12:15:54;;;;;;;4.45;1.95;;;22.50;45.20;;;;;;5073179;28;20222;-44
2023/01/08 12:18:46;;;;;;;4.13;1.80;;;22.40;45.20;;;;;;5074042;28;20206;-48
2023/01/08 12:21:30;;;;;;;3.53;2.10;;;22.40;45.30;;;;;;5073973;28;20282;-47
2023/01/08 12:24:17;;;;;;;3.45;1.73;;;22.40;45.30;;;;;;5073852;28;20654;-47
2023/01/08 12:26:55;;;;;;;3.03;1.50;;;22.40;45.30;;;;;;5074042;28;20268;-47
2023/01/08 12:29:55;;;;;;;2.65;1.58;;;22.30;45.30;;;;;;5073535;28;20190;-44
2023/01/08 12:32:38;;;;;;;3.30;1.77;;;22.30;45.40;;;;;;5073505;28;20674;-48
2023/01/08 12:35:14;;;;;;;3.30;1.98;;;22.30;46.00;;;;;;5073197;28;20222;-44
2023/01/08 12:37:50;;;;;;;2.30;1.33;;;22.30;45.40;;;;;;5073756;28;20199;-47
2023/01/08 12:40:25;;;;;;;2.30;1.45;;;22.20;45.40;;;;;;5073701;28;20670;-45
2023/01/08 12:42:56;;;;;;;3.28;1.92;;;22.20;45.40;;;;;;5073616;28;20672;-45
2023/01/08 12:45:30;;;;;;;4.00;1.90;;;22.20;45.40;;;;;;5073284;28;20214;-45
2023/01/08 12:48:04;;;;;;;3.30;1.40;;;22.20;45.50;;;;;;5073888;28;20225;-49
2023/01/08 12:50:50;;;;;;;2.47;1.50;;;22.20;45.50;;;;;;5073507;28;20198;-45
2023/01/08 12:53:29;;;;;;;2.97;1.75;;;22.20;45.50;;;;;;5073550;28;20194;-44
2023/01/08 12:56:06;;;;;;;3.17;1.80;;;22.10;45.50;;;;;;5073409;28;20682;-45
2023/01/08 12:58:51;;;;;;;4.20;1.80;;;22.10;45.50;;;;;;5072709;28;20198;-44
2023/01/08 13:01:34;;;;;;;3.67;1.50;;;22.10;45.60;;;;;;5073058;28;20242;-45
2023/01/08 13:04:05;;;;;;;2.92;1.75;;;22.10;45.60;;;;;;5056781;28;20187;-48
2023/01/08 13:06:36;;;;;;;2.15;1.60;;;22.00;45.60;;;;;;5053140;28;20204;-44
2023/01/08 13:09:07;;;;;;;2.42;1.40;;;22.00;45.60;;;;;;5057472;28;20222;-45
2023/01/08 13:11:41;;;;;;;3.65;1.65;;;22.00;45.60;;;;;;5052959;28;20204;-43
2023/01/08 13:14:13;;;;;;;2.75;1.40;;;22.00;45.60;;;;;;5067744;28;20194;-46
2023/01/08 13:16:48;;;;;;;2.65;1.40;;;22.00;45.60;;;;;;5073037;28;20195;-45
2023/01/08 13:19:28;;;;;;;2.58;1.60;;;21.90;45.60;;;;;;5072787;28;20687;-44
2023/01/08 13:22:00;;;;;;;2.67;1.58;;;21.90;45.60;;;;;;5072692;28;20660;-55
2023/01/08 13:24:34;;;;;;;3.08;1.45;;;21.90;45.60;;;;;;5072314;28;20223;-48
2023/01/08 13:27:29;;;;;;;2.85;1.50;;;21.90;45.70;;;;;;5072454;28;20206;-45
2023/01/08 13:30:00;;;;;;;2.35;1.80;;;21.90;45.70;;;;;;5072183;28;20252;-45
2023/01/08 13:32:46;;;;;;;3.03;1.40;;;21.90;45.70;;;;;;5072237;28;20206;-44
2023/01/08 13:35:28;;;;;;;3.10;1.70;;;21.80;45.70;;;;;;5072236;28;20301;-48
2023/01/08 13:38:16;;;;;;;2.50;1.48;;;21.80;45.70;;;;;;5072675;28;20230;-43
2023/01/08 13:40:58;;;;;;;3.35;1.50;;;21.80;45.70;;;;;;5052656;28;20201;-46
2023/01/08 13:43:32;;;;;;;2.20;1.20;;;21.80;45.70;;;;;;5052436;28;20199;-43
2023/01/08 13:46:15;;;;;;;2.97;1.67;;;21.70;45.70;;;;;;5052527;28;20218;-52
2023/01/08 13:48:58;;;;;;;2.83;1.50;;;21.70;45.70;;;;;;5051927;28;20231;-53
2023/01/08 13:51:51;;;;;;;2.30;1.42;;;21.70;45.80;;;;;;5052127;28;20209;-59
2023/01/08 13:54:31;;;;;;;3.63;1.90;;;21.70;45.80;;;;;;5052207;28;20215;-59
2023/01/08 13:57:08;;;;;;;2.10;1.27;;;21.70;45.80;;;;;;5052145;28;20199;-56
2023/01/08 13:59:43;;;;;;;2.20;1.58;;;21.70;45.90;;;;;;5051979;28;20207;-51
2023/01/08 14:02:27;;;;;;;3.20;1.55;;;21.60;45.70;;;;;;5052021;28;20207;-53
2023/01/08 14:05:01;;;;;;;2.17;1.38;;;21.60;45.80;;;;;;5052220;28;20222;-55
2023/01/08 14:07:31;;;;;;;2.45;1.38;;;21.60;45.80;;;;;;5052185;28;20237;-58
2023/01/08 14:10:11;;;;;;;2.58;1.40;;;21.60;45.80;;;;;;5068184;28;20195;-58
2023/01/08 14:12:42;;;;;;;2.92;1.50;;;21.50;45.80;;;;;;5072010;28;20205;-49
2023/01/08 14:15:21;;;;;;;3.53;1.63;;;21.50;45.80;;;;;;5071784;28;20219;-50
2023/01/08 14:17:52;;;;;;;2.35;1.42;;;21.50;45.80;;;;;;5072033;28;20605;-51
2023/01/08 14:20:34;;;;;;;3.22;1.20;;;21.50;45.80;;;;;;5071542;28;20194;-54
2023/01/08 14:23:10;;;;;;;2.88;1.52;;;21.50;45.80;;;;;;5071495;28;20567;-49
2023/01/08 14:25:42;;;;;;;2.83;1.55;;;21.50;45.90;;;;;;5071376;28;20216;-51
2023/01/08 14:28:19;;;;;;;2.15;1.17;;;21.40;45.80;;;;;;5071584;28;20233;-52